sensor_id;sensor_type;location;lat;lon;timestamp;P1;durP1;ratioP1;P2;durP2;ratioP2
33160;SDS011;19522;45.656;11.302;2022-12-29T00:00:49;25.08;;;16.23;;
33160;SDS011;19522;45.656;11.302;2022-12-29T00:03:14;23.63;;;16.08;;
33160;SDS011;19522;45.656;11.302;2022-12-29T00:05:40;20.90;;;15.45;;
33160;SDS011;19522;45.656;11.302;2022-12-29T00:08:05;23.85;;;16.27;;
33160;SDS011;19522;45.656;11.302;2022-12-29T00:10:31;23.65;;;16.35;;
33160;SDS011;19522;45.656;11.302;2022-12-29T00:12:56;25.88;;;17.40;;
33160;SDS011;19522;45.656;11.302;2022-12-29T00:15:40;19.20;;;12.73;;
33160;SDS011;19522;45.656;11.302;2022-12-29T00:18:06;24.67;;;17.15;;
33160;SDS011;19522;45.656;11.302;2022-12-29T00:20:33;25.70;;;17.23;;
33160;SDS011;19522;45.656;11.302;2022-12-29T00:23:18;29.73;;;16.20;;
33160;SDS011;19522;45.656;11.302;2022-12-29T00:26:03;24.60;;;16.25;;
33160;SDS011;19522;45.656;11.302;2022-12-29T00:28:47;23.80;;;17.05;;
33160;SDS011;19522;45.656;11.302;2022-12-29T00:31:31;26.92;;;17.05;;
33160;SDS011;19522;45.656;11.302;2022-12-29T00:34:15;19.53;;;13.90;;
33160;SDS011;19522;45.656;11.302;2022-12-29T00:36:59;27.05;;;18.55;;
33160;SDS011;19522;45.656;11.302;2022-12-29T00:39:25;28.60;;;18.02;;
33160;SDS011;19522;45.656;11.302;2022-12-29T00:42:09;34.10;;;21.37;;
33160;SDS011;19522;45.656;11.302;2022-12-29T00:44:53;29.95;;;16.88;;
33160;SDS011;19522;45.656;11.302;2022-12-29T00:47:18;27.77;;;18.10;;
33160;SDS011;19522;45.656;11.302;2022-12-29T00:49:44;28.65;;;18.52;;
33160;SDS011;19522;45.656;11.302;2022-12-29T00:52:10;29.05;;;17.25;;
33160;SDS011;19522;45.656;11.302;2022-12-29T00:54:38;24.52;;;16.75;;
33160;SDS011;19522;45.656;11.302;2022-12-29T00:57:06;25.42;;;16.65;;
33160;SDS011;19522;45.656;11.302;2022-12-29T00:59:34;25.40;;;16.92;;
33160;SDS011;19522;45.656;11.302;2022-12-29T01:02:03;26.00;;;16.23;;
33160;SDS011;19522;45.656;11.302;2022-12-29T01:04:29;24.10;;;16.50;;
33160;SDS011;19522;45.656;11.302;2022-12-29T01:06:55;26.00;;;16.65;;
33160;SDS011;19522;45.656;11.302;2022-12-29T01:09:20;23.00;;;15.52;;
33160;SDS011;19522;45.656;11.302;2022-12-29T01:12:05;24.08;;;15.82;;
33160;SDS011;19522;45.656;11.302;2022-12-29T01:14:32;23.83;;;14.95;;
33160;SDS011;19522;45.656;11.302;2022-12-29T01:16:57;22.60;;;14.40;;
33160;SDS011;19522;45.656;11.302;2022-12-29T01:19:23;21.98;;;14.50;;
33160;SDS011;19522;45.656;11.302;2022-12-29T01:21:49;23.92;;;16.17;;
33160;SDS011;19522;45.656;11.302;2022-12-29T01:24:15;21.20;;;13.93;;
33160;SDS011;19522;45.656;11.302;2022-12-29T01:26:42;19.80;;;12.90;;
33160;SDS011;19522;45.656;11.302;2022-12-29T01:29:08;21.13;;;13.90;;
33160;SDS011;19522;45.656;11.302;2022-12-29T01:31:33;20.27;;;13.00;;
33160;SDS011;19522;45.656;11.302;2022-12-29T01:33:59;22.08;;;14.43;;
33160;SDS011;19522;45.656;11.302;2022-12-29T01:36:25;21.85;;;15.63;;
33160;SDS011;19522;45.656;11.302;2022-12-29T01:38:50;20.95;;;15.50;;
33160;SDS011;19522;45.656;11.302;2022-12-29T01:41:16;23.77;;;16.40;;
33160;SDS011;19522;45.656;11.302;2022-12-29T01:46:25;17.17;;;13.50;;
33160;SDS011;19522;45.656;11.302;2022-12-29T01:51:40;20.00;;;14.17;;
33160;SDS011;19522;45.656;11.302;2022-12-29T01:54:14;21.30;;;14.25;;
33160;SDS011;19522;45.656;11.302;2022-12-29T01:56:45;18.73;;;13.00;;
33160;SDS011;19522;45.656;11.302;2022-12-29T01:59:13;20.15;;;13.85;;
33160;SDS011;19522;45.656;11.302;2022-12-29T02:01:43;20.30;;;14.23;;
33160;SDS011;19522;45.656;11.302;2022-12-29T02:04:09;19.35;;;13.13;;
33160;SDS011;19522;45.656;11.302;2022-12-29T02:06:57;20.38;;;12.98;;
33160;SDS011;19522;45.656;11.302;2022-12-29T02:09:26;19.55;;;13.38;;
33160;SDS011;19522;45.656;11.302;2022-12-29T02:11:52;20.25;;;14.25;;
33160;SDS011;19522;45.656;11.302;2022-12-29T02:14:18;24.83;;;15.73;;
33160;SDS011;19522;45.656;11.302;2022-12-29T02:27:53;22.08;;;15.32;;
33160;SDS011;19522;45.656;11.302;2022-12-29T02:30:42;24.02;;;15.85;;
33160;SDS011;19522;45.656;11.302;2022-12-29T02:33:21;24.85;;;15.85;;
33160;SDS011;19522;45.656;11.302;2022-12-29T02:41:11;22.45;;;14.82;;
33160;SDS011;19522;45.656;11.302;2022-12-29T02:46:30;23.88;;;15.55;;
33160;SDS011;19522;45.656;11.302;2022-12-29T02:49:16;22.33;;;14.07;;
33160;SDS011;19522;45.656;11.302;2022-12-29T02:51:52;22.63;;;15.00;;
33160;SDS011;19522;45.656;11.302;2022-12-29T02:54:23;26.48;;;14.88;;
33160;SDS011;19522;45.656;11.302;2022-12-29T02:57:09;21.58;;;13.63;;
33160;SDS011;19522;45.656;11.302;2022-12-29T02:59:57;21.92;;;14.13;;
33160;SDS011;19522;45.656;11.302;2022-12-29T03:08:16;25.88;;;15.65;;
33160;SDS011;19522;45.656;11.302;2022-12-29T03:11:24;24.20;;;15.50;;
33160;SDS011;19522;45.656;11.302;2022-12-29T03:14:08;22.52;;;14.80;;
33160;SDS011;19522;45.656;11.302;2022-12-29T03:17:03;24.25;;;15.43;;
33160;SDS011;19522;45.656;11.302;2022-12-29T03:19:36;23.17;;;15.48;;
33160;SDS011;19522;45.656;11.302;2022-12-29T03:22:13;23.50;;;14.77;;
33160;SDS011;19522;45.656;11.302;2022-12-29T03:25:06;25.15;;;15.80;;
33160;SDS011;19522;45.656;11.302;2022-12-29T03:27:39;25.30;;;15.27;;
33160;SDS011;19522;45.656;11.302;2022-12-29T03:30:08;24.73;;;14.95;;
33160;SDS011;19522;45.656;11.302;2022-12-29T03:32:36;23.25;;;16.02;;
33160;SDS011;19522;45.656;11.302;2022-12-29T03:35:07;24.67;;;15.27;;
33160;SDS011;19522;45.656;11.302;2022-12-29T03:37:37;23.38;;;15.48;;
33160;SDS011;19522;45.656;11.302;2022-12-29T03:40:05;23.20;;;15.90;;
33160;SDS011;19522;45.656;11.302;2022-12-29T03:42:32;24.50;;;15.27;;
33160;SDS011;19522;45.656;11.302;2022-12-29T03:45:01;24.33;;;15.43;;
33160;SDS011;19522;45.656;11.302;2022-12-29T03:47:26;22.73;;;15.00;;
33160;SDS011;19522;45.656;11.302;2022-12-29T03:49:52;24.80;;;15.50;;
33160;SDS011;19522;45.656;11.302;2022-12-29T03:52:17;23.40;;;15.27;;
33160;SDS011;19522;45.656;11.302;2022-12-29T03:54:43;21.58;;;14.35;;
33160;SDS011;19522;45.656;11.302;2022-12-29T03:57:10;23.70;;;15.38;;
33160;SDS011;19522;45.656;11.302;2022-12-29T03:59:36;25.15;;;14.93;;
33160;SDS011;19522;45.656;11.302;2022-12-29T04:02:01;18.08;;;13.88;;
33160;SDS011;19522;45.656;11.302;2022-12-29T04:04:27;22.17;;;14.65;;
33160;SDS011;19522;45.656;11.302;2022-12-29T04:06:53;23.70;;;14.93;;
33160;SDS011;19522;45.656;11.302;2022-12-29T04:09:18;23.88;;;16.10;;
33160;SDS011;19522;45.656;11.302;2022-12-29T04:11:44;22.27;;;15.07;;
33160;SDS011;19522;45.656;11.302;2022-12-29T04:14:09;24.95;;;15.93;;
33160;SDS011;19522;45.656;11.302;2022-12-29T04:16:35;23.33;;;15.52;;
33160;SDS011;19522;45.656;11.302;2022-12-29T04:19:01;21.23;;;14.50;;
33160;SDS011;19522;45.656;11.302;2022-12-29T04:21:27;24.02;;;16.42;;
33160;SDS011;19522;45.656;11.302;2022-12-29T04:23:52;23.33;;;15.90;;
33160;SDS011;19522;45.656;11.302;2022-12-29T04:26:18;24.17;;;16.20;;
33160;SDS011;19522;45.656;11.302;2022-12-29T04:28:43;25.15;;;16.88;;
33160;SDS011;19522;45.656;11.302;2022-12-29T04:31:09;27.05;;;16.85;;
33160;SDS011;19522;45.656;11.302;2022-12-29T04:33:34;25.25;;;17.33;;
33160;SDS011;19522;45.656;11.302;2022-12-29T04:36:00;25.27;;;17.10;;
33160;SDS011;19522;45.656;11.302;2022-12-29T04:38:25;25.23;;;16.20;;
33160;SDS011;19522;45.656;11.302;2022-12-29T04:40:51;24.10;;;15.48;;
33160;SDS011;19522;45.656;11.302;2022-12-29T04:43:17;24.02;;;16.17;;
33160;SDS011;19522;45.656;11.302;2022-12-29T04:45:47;24.05;;;15.20;;
33160;SDS011;19522;45.656;11.302;2022-12-29T04:48:13;26.58;;;16.38;;
33160;SDS011;19522;45.656;11.302;2022-12-29T04:50:39;23.92;;;16.25;;
33160;SDS011;19522;45.656;11.302;2022-12-29T04:53:05;23.33;;;14.73;;
33160;SDS011;19522;45.656;11.302;2022-12-29T04:55:31;22.85;;;15.27;;
33160;SDS011;19522;45.656;11.302;2022-12-29T04:57:56;25.85;;;15.52;;
33160;SDS011;19522;45.656;11.302;2022-12-29T05:00:22;28.88;;;16.05;;
33160;SDS011;19522;45.656;11.302;2022-12-29T05:02:48;24.40;;;15.43;;
33160;SDS011;19522;45.656;11.302;2022-12-29T05:05:13;23.33;;;15.98;;
33160;SDS011;19522;45.656;11.302;2022-12-29T05:07:39;22.92;;;16.08;;
33160;SDS011;19522;45.656;11.302;2022-12-29T05:10:05;23.65;;;15.65;;
33160;SDS011;19522;45.656;11.302;2022-12-29T05:12:32;23.15;;;15.32;;
33160;SDS011;19522;45.656;11.302;2022-12-29T05:14:59;22.90;;;16.25;;
33160;SDS011;19522;45.656;11.302;2022-12-29T05:17:25;24.30;;;16.52;;
33160;SDS011;19522;45.656;11.302;2022-12-29T05:19:51;26.08;;;17.52;;
33160;SDS011;19522;45.656;11.302;2022-12-29T05:22:17;27.98;;;17.08;;
33160;SDS011;19522;45.656;11.302;2022-12-29T05:24:42;25.33;;;16.95;;
33160;SDS011;19522;45.656;11.302;2022-12-29T05:27:08;28.88;;;17.33;;
33160;SDS011;19522;45.656;11.302;2022-12-29T05:29:33;26.52;;;18.80;;
33160;SDS011;19522;45.656;11.302;2022-12-29T05:31:58;30.65;;;18.42;;
33160;SDS011;19522;45.656;11.302;2022-12-29T05:34:24;29.95;;;19.58;;
33160;SDS011;19522;45.656;11.302;2022-12-29T05:36:50;27.75;;;19.33;;
33160;SDS011;19522;45.656;11.302;2022-12-29T05:39:15;28.15;;;18.75;;
33160;SDS011;19522;45.656;11.302;2022-12-29T05:41:41;30.45;;;19.05;;
33160;SDS011;19522;45.656;11.302;2022-12-29T05:44:06;27.92;;;18.77;;
33160;SDS011;19522;45.656;11.302;2022-12-29T05:46:32;30.40;;;19.33;;
33160;SDS011;19522;45.656;11.302;2022-12-29T05:48:57;30.15;;;19.45;;
33160;SDS011;19522;45.656;11.302;2022-12-29T05:51:23;31.25;;;20.48;;
33160;SDS011;19522;45.656;11.302;2022-12-29T05:53:48;34.97;;;21.77;;
33160;SDS011;19522;45.656;11.302;2022-12-29T05:56:14;30.20;;;19.35;;
33160;SDS011;19522;45.656;11.302;2022-12-29T05:58:39;36.92;;;23.20;;
33160;SDS011;19522;45.656;11.302;2022-12-29T06:01:05;36.72;;;24.15;;
33160;SDS011;19522;45.656;11.302;2022-12-29T06:03:30;37.13;;;22.83;;
33160;SDS011;19522;45.656;11.302;2022-12-29T06:05:56;30.88;;;20.85;;
33160;SDS011;19522;45.656;11.302;2022-12-29T06:08:21;37.05;;;22.52;;
33160;SDS011;19522;45.656;11.302;2022-12-29T06:10:47;36.78;;;21.35;;
33160;SDS011;19522;45.656;11.302;2022-12-29T06:13:12;35.45;;;21.23;;
33160;SDS011;19522;45.656;11.302;2022-12-29T06:15:38;30.27;;;21.40;;
33160;SDS011;19522;45.656;11.302;2022-12-29T06:18:03;32.55;;;20.50;;
33160;SDS011;19522;45.656;11.302;2022-12-29T06:20:29;33.08;;;20.67;;
33160;SDS011;19522;45.656;11.302;2022-12-29T06:22:54;31.48;;;20.13;;
33160;SDS011;19522;45.656;11.302;2022-12-29T06:25:20;30.13;;;19.50;;
33160;SDS011;19522;45.656;11.302;2022-12-29T06:27:45;36.92;;;23.65;;
33160;SDS011;19522;45.656;11.302;2022-12-29T06:30:11;33.75;;;21.25;;
33160;SDS011;19522;45.656;11.302;2022-12-29T06:32:37;33.22;;;21.35;;
33160;SDS011;19522;45.656;11.302;2022-12-29T06:35:03;39.30;;;26.65;;
33160;SDS011;19522;45.656;11.302;2022-12-29T06:37:31;38.90;;;23.67;;
33160;SDS011;19522;45.656;11.302;2022-12-29T06:39:56;33.58;;;23.15;;
33160;SDS011;19522;45.656;11.302;2022-12-29T06:42:22;40.25;;;25.98;;
33160;SDS011;19522;45.656;11.302;2022-12-29T06:44:48;34.80;;;23.02;;
33160;SDS011;19522;45.656;11.302;2022-12-29T06:47:14;36.03;;;21.55;;
33160;SDS011;19522;45.656;11.302;2022-12-29T06:49:39;40.40;;;22.50;;
33160;SDS011;19522;45.656;11.302;2022-12-29T06:52:05;34.72;;;21.52;;
33160;SDS011;19522;45.656;11.302;2022-12-29T06:54:30;31.35;;;20.85;;
33160;SDS011;19522;45.656;11.302;2022-12-29T06:56:56;39.95;;;26.65;;
33160;SDS011;19522;45.656;11.302;2022-12-29T06:59:22;39.47;;;26.40;;
33160;SDS011;19522;45.656;11.302;2022-12-29T07:01:49;36.25;;;24.10;;
33160;SDS011;19522;45.656;11.302;2022-12-29T07:04:15;53.28;;;33.35;;
33160;SDS011;19522;45.656;11.302;2022-12-29T07:06:40;66.70;;;40.85;;
33160;SDS011;19522;45.656;11.302;2022-12-29T07:09:06;40.50;;;27.48;;
33160;SDS011;19522;45.656;11.302;2022-12-29T07:11:32;43.10;;;28.90;;
33160;SDS011;19522;45.656;11.302;2022-12-29T07:13:58;46.78;;;28.60;;
33160;SDS011;19522;45.656;11.302;2022-12-29T07:16:24;41.17;;;27.55;;
33160;SDS011;19522;45.656;11.302;2022-12-29T07:18:49;39.17;;;26.70;;
33160;SDS011;19522;45.656;11.302;2022-12-29T07:21:15;38.90;;;26.70;;
33160;SDS011;19522;45.656;11.302;2022-12-29T07:23:41;41.95;;;25.95;;
33160;SDS011;19522;45.656;11.302;2022-12-29T07:26:07;42.58;;;28.00;;
33160;SDS011;19522;45.656;11.302;2022-12-29T07:28:34;43.55;;;27.70;;
33160;SDS011;19522;45.656;11.302;2022-12-29T07:31:01;38.70;;;25.05;;
33160;SDS011;19522;45.656;11.302;2022-12-29T07:33:30;37.83;;;26.25;;
33160;SDS011;19522;45.656;11.302;2022-12-29T07:35:55;40.88;;;26.23;;
33160;SDS011;19522;45.656;11.302;2022-12-29T07:38:21;43.60;;;27.52;;
33160;SDS011;19522;45.656;11.302;2022-12-29T07:40:46;39.55;;;24.95;;
33160;SDS011;19522;45.656;11.302;2022-12-29T07:43:12;41.80;;;27.55;;
33160;SDS011;19522;45.656;11.302;2022-12-29T07:45:37;39.30;;;26.30;;
33160;SDS011;19522;45.656;11.302;2022-12-29T07:48:04;39.78;;;27.40;;
33160;SDS011;19522;45.656;11.302;2022-12-29T07:50:32;44.45;;;29.23;;
33160;SDS011;19522;45.656;11.302;2022-12-29T07:52:58;43.53;;;28.33;;
33160;SDS011;19522;45.656;11.302;2022-12-29T07:55:24;39.30;;;27.10;;
33160;SDS011;19522;45.656;11.302;2022-12-29T07:57:49;42.03;;;25.98;;
33160;SDS011;19522;45.656;11.302;2022-12-29T08:00:18;47.85;;;28.52;;
33160;SDS011;19522;45.656;11.302;2022-12-29T08:02:45;47.17;;;28.75;;
33160;SDS011;19522;45.656;11.302;2022-12-29T08:05:10;45.95;;;27.30;;
33160;SDS011;19522;45.656;11.302;2022-12-29T08:07:36;41.55;;;28.20;;
33160;SDS011;19522;45.656;11.302;2022-12-29T08:10:02;44.15;;;26.73;;
33160;SDS011;19522;45.656;11.302;2022-12-29T08:12:27;43.28;;;28.95;;
33160;SDS011;19522;45.656;11.302;2022-12-29T08:14:53;48.97;;;28.98;;
33160;SDS011;19522;45.656;11.302;2022-12-29T08:17:18;40.85;;;26.73;;
33160;SDS011;19522;45.656;11.302;2022-12-29T08:19:44;41.58;;;27.70;;
33160;SDS011;19522;45.656;11.302;2022-12-29T08:22:09;42.47;;;29.75;;
33160;SDS011;19522;45.656;11.302;2022-12-29T08:24:35;43.95;;;30.33;;
33160;SDS011;19522;45.656;11.302;2022-12-29T08:27:00;48.10;;;30.92;;
33160;SDS011;19522;45.656;11.302;2022-12-29T08:29:26;45.90;;;28.88;;
33160;SDS011;19522;45.656;11.302;2022-12-29T08:31:52;44.05;;;27.88;;
33160;SDS011;19522;45.656;11.302;2022-12-29T08:34:17;46.80;;;29.85;;
33160;SDS011;19522;45.656;11.302;2022-12-29T08:36:43;42.33;;;28.17;;
33160;SDS011;19522;45.656;11.302;2022-12-29T08:39:08;41.53;;;28.25;;
33160;SDS011;19522;45.656;11.302;2022-12-29T08:41:34;42.25;;;28.13;;
33160;SDS011;19522;45.656;11.302;2022-12-29T08:43:59;42.53;;;28.20;;
33160;SDS011;19522;45.656;11.302;2022-12-29T08:46:25;40.97;;;27.27;;
33160;SDS011;19522;45.656;11.302;2022-12-29T08:48:50;41.05;;;26.90;;
33160;SDS011;19522;45.656;11.302;2022-12-29T08:51:16;40.55;;;27.00;;
33160;SDS011;19522;45.656;11.302;2022-12-29T08:53:42;40.60;;;27.58;;
33160;SDS011;19522;45.656;11.302;2022-12-29T08:56:08;45.58;;;29.30;;
33160;SDS011;19522;45.656;11.302;2022-12-29T08:58:34;45.35;;;29.75;;
33160;SDS011;19522;45.656;11.302;2022-12-29T09:01:00;42.50;;;29.02;;
33160;SDS011;19522;45.656;11.302;2022-12-29T09:03:26;43.20;;;28.50;;
33160;SDS011;19522;45.656;11.302;2022-12-29T09:05:52;45.28;;;28.88;;
33160;SDS011;19522;45.656;11.302;2022-12-29T09:08:19;47.50;;;29.55;;
33160;SDS011;19522;45.656;11.302;2022-12-29T09:10:45;44.17;;;29.02;;
33160;SDS011;19522;45.656;11.302;2022-12-29T09:13:11;44.17;;;29.55;;
33160;SDS011;19522;45.656;11.302;2022-12-29T09:15:37;48.35;;;29.90;;
33160;SDS011;19522;45.656;11.302;2022-12-29T09:18:03;42.28;;;29.02;;
33160;SDS011;19522;45.656;11.302;2022-12-29T09:20:29;43.25;;;29.10;;
33160;SDS011;19522;45.656;11.302;2022-12-29T09:22:54;45.90;;;29.40;;
33160;SDS011;19522;45.656;11.302;2022-12-29T09:25:20;43.67;;;30.50;;
33160;SDS011;19522;45.656;11.302;2022-12-29T09:27:48;47.88;;;30.10;;
33160;SDS011;19522;45.656;11.302;2022-12-29T09:30:14;47.17;;;30.92;;
33160;SDS011;19522;45.656;11.302;2022-12-29T09:32:39;44.75;;;29.73;;
33160;SDS011;19522;45.656;11.302;2022-12-29T09:35:05;49.92;;;31.85;;
33160;SDS011;19522;45.656;11.302;2022-12-29T09:37:32;45.75;;;29.85;;
33160;SDS011;19522;45.656;11.302;2022-12-29T09:39:57;49.72;;;31.83;;
33160;SDS011;19522;45.656;11.302;2022-12-29T09:47:17;48.92;;;31.85;;
33160;SDS011;19522;45.656;11.302;2022-12-29T09:52:22;47.00;;;30.63;;
33160;SDS011;19522;45.656;11.302;2022-12-29T09:54:55;47.05;;;31.33;;
33160;SDS011;19522;45.656;11.302;2022-12-29T09:57:25;49.83;;;32.80;;
33160;SDS011;19522;45.656;11.302;2022-12-29T10:00:19;49.75;;;31.60;;
33160;SDS011;19522;45.656;11.302;2022-12-29T10:02:48;48.45;;;32.13;;
33160;SDS011;19522;45.656;11.302;2022-12-29T10:11:01;43.22;;;29.17;;
33160;SDS011;19522;45.656;11.302;2022-12-29T10:25:26;54.13;;;33.13;;
33160;SDS011;19522;45.656;11.302;2022-12-29T10:27:57;52.13;;;31.52;;
33160;SDS011;19522;45.656;11.302;2022-12-29T10:30:25;81.30;;;39.13;;
33160;SDS011;19522;45.656;11.302;2022-12-29T10:32:58;49.55;;;31.92;;
33160;SDS011;19522;45.656;11.302;2022-12-29T10:35:31;49.72;;;31.73;;
33160;SDS011;19522;45.656;11.302;2022-12-29T10:45:54;48.80;;;30.15;;
33160;SDS011;19522;45.656;11.302;2022-12-29T10:48:31;46.97;;;30.90;;
33160;SDS011;19522;45.656;11.302;2022-12-29T10:50:59;48.28;;;32.13;;
33160;SDS011;19522;45.656;11.302;2022-12-29T10:56:34;45.90;;;30.20;;
33160;SDS011;19522;45.656;11.302;2022-12-29T10:59:18;47.67;;;29.02;;
33160;SDS011;19522;45.656;11.302;2022-12-29T11:07:02;42.45;;;27.88;;
33160;SDS011;19522;45.656;11.302;2022-12-29T11:09:29;47.08;;;29.40;;
33160;SDS011;19522;45.656;11.302;2022-12-29T11:11:57;47.35;;;29.52;;
33160;SDS011;19522;45.656;11.302;2022-12-29T11:14:27;47.50;;;28.60;;
33160;SDS011;19522;45.656;11.302;2022-12-29T11:17:01;44.88;;;27.77;;
33160;SDS011;19522;45.656;11.302;2022-12-29T11:19:29;44.20;;;28.13;;
33160;SDS011;19522;45.656;11.302;2022-12-29T11:22:30;40.45;;;26.45;;
33160;SDS011;19522;45.656;11.302;2022-12-29T11:24:52;42.17;;;26.90;;
33160;SDS011;19522;45.656;11.302;2022-12-29T11:27:23;44.60;;;28.35;;
33160;SDS011;19522;45.656;11.302;2022-12-29T11:29:51;46.58;;;28.73;;
33160;SDS011;19522;45.656;11.302;2022-12-29T11:32:20;43.53;;;27.60;;
33160;SDS011;19522;45.656;11.302;2022-12-29T11:34:50;47.83;;;29.20;;
33160;SDS011;19522;45.656;11.302;2022-12-29T11:37:16;44.72;;;29.63;;
33160;SDS011;19522;45.656;11.302;2022-12-29T11:45:05;43.42;;;27.60;;
33160;SDS011;19522;45.656;11.302;2022-12-29T11:47:41;40.85;;;27.48;;
33160;SDS011;19522;45.656;11.302;2022-12-29T11:50:15;41.72;;;27.95;;
33160;SDS011;19522;45.656;11.302;2022-12-29T11:52:46;45.92;;;27.58;;
33160;SDS011;19522;45.656;11.302;2022-12-29T11:55:19;44.17;;;27.63;;
33160;SDS011;19522;45.656;11.302;2022-12-29T11:57:47;43.65;;;27.90;;
33160;SDS011;19522;45.656;11.302;2022-12-29T12:02:45;42.13;;;27.58;;
33160;SDS011;19522;45.656;11.302;2022-12-29T12:05:26;31.75;;;19.90;;
33160;SDS011;19522;45.656;11.302;2022-12-29T12:08:14;42.50;;;28.33;;
33160;SDS011;19522;45.656;11.302;2022-12-29T12:13:39;44.15;;;27.85;;
33160;SDS011;19522;45.656;11.302;2022-12-29T12:16:18;30.88;;;19.02;;
33160;SDS011;19522;45.656;11.302;2022-12-29T12:21:18;44.65;;;28.00;;
33160;SDS011;19522;45.656;11.302;2022-12-29T12:29:35;44.22;;;27.25;;
33160;SDS011;19522;45.656;11.302;2022-12-29T12:32:11;45.85;;;28.90;;
33160;SDS011;19522;45.656;11.302;2022-12-29T12:34:43;45.25;;;28.92;;
33160;SDS011;19522;45.656;11.302;2022-12-29T12:53:33;43.90;;;28.33;;
33160;SDS011;19522;45.656;11.302;2022-12-29T12:56:21;41.42;;;26.80;;
33160;SDS011;19522;45.656;11.302;2022-12-29T12:58:53;40.30;;;25.65;;
33160;SDS011;19522;45.656;11.302;2022-12-29T13:04:32;39.00;;;24.95;;
33160;SDS011;19522;45.656;11.302;2022-12-29T13:07:26;40.30;;;25.20;;
33160;SDS011;19522;45.656;11.302;2022-12-29T13:26:32;36.97;;;24.77;;
33160;SDS011;19522;45.656;11.302;2022-12-29T13:29:15;40.17;;;23.88;;
33160;SDS011;19522;45.656;11.302;2022-12-29T13:32:10;39.92;;;24.95;;
33160;SDS011;19522;45.656;11.302;2022-12-29T13:34:42;33.97;;;24.63;;
33160;SDS011;19522;45.656;11.302;2022-12-29T13:37:25;43.53;;;24.35;;
33160;SDS011;19522;45.656;11.302;2022-12-29T13:39:55;38.67;;;24.73;;
33160;SDS011;19522;45.656;11.302;2022-12-29T13:42:28;38.67;;;26.55;;
33160;SDS011;19522;45.656;11.302;2022-12-29T13:44:57;34.78;;;23.50;;
33160;SDS011;19522;45.656;11.302;2022-12-29T13:47:37;34.63;;;23.25;;
33160;SDS011;19522;45.656;11.302;2022-12-29T13:50:21;34.03;;;23.50;;
33160;SDS011;19522;45.656;11.302;2022-12-29T13:52:59;37.67;;;23.38;;
33160;SDS011;19522;45.656;11.302;2022-12-29T13:55:35;38.13;;;23.65;;
33160;SDS011;19522;45.656;11.302;2022-12-29T13:58:41;37.88;;;24.92;;
33160;SDS011;19522;45.656;11.302;2022-12-29T14:01:15;35.00;;;23.13;;
33160;SDS011;19522;45.656;11.302;2022-12-29T14:03:48;32.90;;;23.90;;
33160;SDS011;19522;45.656;11.302;2022-12-29T14:06:27;34.70;;;23.25;;
33160;SDS011;19522;45.656;11.302;2022-12-29T14:08:58;34.08;;;24.33;;
33160;SDS011;19522;45.656;11.302;2022-12-29T14:11:32;36.45;;;24.77;;
33160;SDS011;19522;45.656;11.302;2022-12-29T14:14:10;38.20;;;26.05;;
33160;SDS011;19522;45.656;11.302;2022-12-29T14:16:39;36.67;;;25.58;;
33160;SDS011;19522;45.656;11.302;2022-12-29T14:19:28;34.00;;;23.38;;
33160;SDS011;19522;45.656;11.302;2022-12-29T14:21:58;34.47;;;24.60;;
33160;SDS011;19522;45.656;11.302;2022-12-29T14:31:54;33.95;;;25.23;;
33160;SDS011;19522;45.656;11.302;2022-12-29T14:36:55;34.83;;;23.63;;
33160;SDS011;19522;45.656;11.302;2022-12-29T14:39:36;35.00;;;22.77;;
33160;SDS011;19522;45.656;11.302;2022-12-29T14:42:06;33.13;;;22.70;;
33160;SDS011;19522;45.656;11.302;2022-12-29T14:47:37;32.78;;;23.23;;
33160;SDS011;19522;45.656;11.302;2022-12-29T14:52:31;33.45;;;23.25;;
33160;SDS011;19522;45.656;11.302;2022-12-29T14:57:40;30.73;;;21.55;;
33160;SDS011;19522;45.656;11.302;2022-12-29T15:00:18;32.95;;;22.92;;
33160;SDS011;19522;45.656;11.302;2022-12-29T15:02:59;36.35;;;24.65;;
33160;SDS011;19522;45.656;11.302;2022-12-29T15:05:49;37.30;;;24.55;;
33160;SDS011;19522;45.656;11.302;2022-12-29T15:08:18;36.28;;;25.27;;
33160;SDS011;19522;45.656;11.302;2022-12-29T15:10:57;38.17;;;26.45;;
33160;SDS011;19522;45.656;11.302;2022-12-29T15:13:33;39.70;;;28.58;;
33160;SDS011;19522;45.656;11.302;2022-12-29T15:16:04;42.40;;;28.83;;
33160;SDS011;19522;45.656;11.302;2022-12-29T15:18:45;38.42;;;26.25;;
33160;SDS011;19522;45.656;11.302;2022-12-29T15:21:11;34.35;;;24.38;;
33160;SDS011;19522;45.656;11.302;2022-12-29T15:23:39;40.13;;;27.65;;
33160;SDS011;19522;45.656;11.302;2022-12-29T15:26:08;36.88;;;25.27;;
33160;SDS011;19522;45.656;11.302;2022-12-29T15:28:39;33.47;;;23.45;;
33160;SDS011;19522;45.656;11.302;2022-12-29T15:31:10;40.47;;;27.60;;
33160;SDS011;19522;45.656;11.302;2022-12-29T15:33:39;39.13;;;27.80;;
33160;SDS011;19522;45.656;11.302;2022-12-29T15:36:10;36.75;;;25.13;;
33160;SDS011;19522;45.656;11.302;2022-12-29T15:38:38;37.90;;;25.83;;
33160;SDS011;19522;45.656;11.302;2022-12-29T15:41:05;38.63;;;24.70;;
33160;SDS011;19522;45.656;11.302;2022-12-29T15:46:13;35.58;;;25.45;;
33160;SDS011;19522;45.656;11.302;2022-12-29T15:48:39;37.53;;;26.38;;
33160;SDS011;19522;45.656;11.302;2022-12-29T15:51:19;34.30;;;24.25;;
33160;SDS011;19522;45.656;11.302;2022-12-29T15:53:53;31.95;;;23.48;;
33160;SDS011;19522;45.656;11.302;2022-12-29T15:56:19;34.60;;;24.23;;
33160;SDS011;19522;45.656;11.302;2022-12-29T15:58:46;33.33;;;23.73;;
33160;SDS011;19522;45.656;11.302;2022-12-29T16:01:17;33.83;;;24.90;;
33160;SDS011;19522;45.656;11.302;2022-12-29T16:03:58;37.53;;;24.77;;
33160;SDS011;19522;45.656;11.302;2022-12-29T16:11:37;37.10;;;26.20;;
33160;SDS011;19522;45.656;11.302;2022-12-29T16:14:06;42.38;;;28.63;;
33160;SDS011;19522;45.656;11.302;2022-12-29T16:16:36;38.65;;;26.63;;
33160;SDS011;19522;45.656;11.302;2022-12-29T16:19:15;39.10;;;27.08;;
33160;SDS011;19522;45.656;11.302;2022-12-29T16:22:03;40.58;;;27.23;;
33160;SDS011;19522;45.656;11.302;2022-12-29T16:24:36;38.80;;;26.38;;
33160;SDS011;19522;45.656;11.302;2022-12-29T16:27:20;42.10;;;29.02;;
33160;SDS011;19522;45.656;11.302;2022-12-29T16:29:49;37.72;;;27.25;;
33160;SDS011;19522;45.656;11.302;2022-12-29T16:32:24;44.35;;;29.10;;
33160;SDS011;19522;45.656;11.302;2022-12-29T16:37:34;44.08;;;30.92;;
33160;SDS011;19522;45.656;11.302;2022-12-29T16:43:04;50.13;;;32.95;;
33160;SDS011;19522;45.656;11.302;2022-12-29T16:50:39;58.38;;;37.83;;
33160;SDS011;19522;45.656;11.302;2022-12-29T16:53:16;45.72;;;32.92;;
33160;SDS011;19522;45.656;11.302;2022-12-29T16:55:47;47.75;;;32.55;;
33160;SDS011;19522;45.656;11.302;2022-12-29T16:58:18;57.33;;;37.40;;
33160;SDS011;19522;45.656;11.302;2022-12-29T17:00:52;63.55;;;41.90;;
33160;SDS011;19522;45.656;11.302;2022-12-29T17:03:20;58.83;;;37.78;;
33160;SDS011;19522;45.656;11.302;2022-12-29T17:05:47;50.13;;;34.75;;
33160;SDS011;19522;45.656;11.302;2022-12-29T17:08:21;55.35;;;35.03;;